sensor_id;sensor_type;location;lat;lon;timestamp;temperature;humidity
25342;DHT22;13298;48.792;9.154;2023-06-26T00:00:49;19.80;83.80
25342;DHT22;13298;48.792;9.154;2023-06-26T00:03:15;19.80;83.80
25342;DHT22;13298;48.792;9.154;2023-06-26T00:05:41;19.80;83.80
25342;DHT22;13298;48.792;9.154;2023-06-26T00:08:07;19.80;84.00
25342;DHT22;13298;48.792;9.154;2023-06-26T00:10:34;19.80;84.60
25342;DHT22;13298;48.792;9.154;2023-06-26T00:13:00;19.80;84.70
25342;DHT22;13298;48.792;9.154;2023-06-26T00:15:27;19.70;84.90
25342;DHT22;13298;48.792;9.154;2023-06-26T00:17:57;19.80;84.60
25342;DHT22;13298;48.792;9.154;2023-06-26T00:20:25;19.70;85.10
25342;DHT22;13298;48.792;9.154;2023-06-26T00:22:51;19.70;84.40
25342;DHT22;13298;48.792;9.154;2023-06-26T00:25:16;19.70;85.10
25342;DHT22;13298;48.792;9.154;2023-06-26T00:27:42;19.70;85.30
25342;DHT22;13298;48.792;9.154;2023-06-26T00:30:08;19.70;84.90
25342;DHT22;13298;48.792;9.154;2023-06-26T00:32:34;19.70;84.60
25342;DHT22;13298;48.792;9.154;2023-06-26T00:35:00;19.80;83.50
25342;DHT22;13298;48.792;9.154;2023-06-26T00:37:25;19.90;82.90
25342;DHT22;13298;48.792;9.154;2023-06-26T00:39:51;20.00;82.70
25342;DHT22;13298;48.792;9.154;2023-06-26T00:42:18;20.00;82.40
25342;DHT22;13298;48.792;9.154;2023-06-26T00:44:44;20.10;82.10
25342;DHT22;13298;48.792;9.154;2023-06-26T00:47:13;20.10;82.20
25342;DHT22;13298;48.792;9.154;2023-06-26T00:49:40;20.10;81.50
25342;DHT22;13298;48.792;9.154;2023-06-26T00:52:06;20.20;81.90
25342;DHT22;13298;48.792;9.154;2023-06-26T00:54:32;20.20;82.10
25342;DHT22;13298;48.792;9.154;2023-06-26T00:56:58;20.20;81.70
25342;DHT22;13298;48.792;9.154;2023-06-26T00:59:23;20.20;81.10
25342;DHT22;13298;48.792;9.154;2023-06-26T01:01:49;20.30;81.50
25342;DHT22;13298;48.792;9.154;2023-06-26T01:04:15;20.30;81.30
25342;DHT22;13298;48.792;9.154;2023-06-26T01:06:47;20.20;81.40
25342;DHT22;13298;48.792;9.154;2023-06-26T01:09:21;20.30;80.70
25342;DHT22;13298;48.792;9.154;2023-06-26T01:11:48;20.30;80.00
25342;DHT22;13298;48.792;9.154;2023-06-26T01:14:13;20.40;80.00
25342;DHT22;13298;48.792;9.154;2023-06-26T01:16:40;20.40;80.20
25342;DHT22;13298;48.792;9.154;2023-06-26T01:19:12;20.30;80.60
25342;DHT22;13298;48.792;9.154;2023-06-26T01:21:43;20.30;81.20
25342;DHT22;13298;48.792;9.154;2023-06-26T01:24:18;20.20;81.80
25342;DHT22;13298;48.792;9.154;2023-06-26T01:26:47;20.10;82.00
25342;DHT22;13298;48.792;9.154;2023-06-26T01:29:15;20.10;82.20
25342;DHT22;13298;48.792;9.154;2023-06-26T01:31:43;20.00;82.80
25342;DHT22;13298;48.792;9.154;2023-06-26T01:34:11;19.90;83.50
25342;DHT22;13298;48.792;9.154;2023-06-26T01:36:38;19.90;84.10
25342;DHT22;13298;48.792;9.154;2023-06-26T01:39:04;19.80;84.30
25342;DHT22;13298;48.792;9.154;2023-06-26T01:41:29;19.70;84.60
25342;DHT22;13298;48.792;9.154;2023-06-26T01:49:56;19.50;86.60
25342;DHT22;13298;48.792;9.154;2023-06-26T01:52:33;19.50;87.50
25342;DHT22;13298;48.792;9.154;2023-06-26T01:55:38;19.40;87.80
25342;DHT22;13298;48.792;9.154;2023-06-26T01:58:06;19.30;88.40
25342;DHT22;13298;48.792;9.154;2023-06-26T02:00:32;19.20;89.30
25342;DHT22;13298;48.792;9.154;2023-06-26T02:02:58;19.10;90.00
25342;DHT22;13298;48.792;9.154;2023-06-26T02:05:24;19.10;90.30
25342;DHT22;13298;48.792;9.154;2023-06-26T02:07:50;19.00;90.50
25342;DHT22;13298;48.792;9.154;2023-06-26T02:10:17;19.00;90.90
25342;DHT22;13298;48.792;9.154;2023-06-26T02:12:42;18.90;90.70
25342;DHT22;13298;48.792;9.154;2023-06-26T02:15:08;18.90;90.60
25342;DHT22;13298;48.792;9.154;2023-06-26T02:17:34;18.80;90.80
25342;DHT22;13298;48.792;9.154;2023-06-26T02:20:00;18.80;91.00
25342;DHT22;13298;48.792;9.154;2023-06-26T02:22:25;18.70;91.20
25342;DHT22;13298;48.792;9.154;2023-06-26T02:24:53;18.70;91.20
25342;DHT22;13298;48.792;9.154;2023-06-26T02:27:19;18.70;91.00
25342;DHT22;13298;48.792;9.154;2023-06-26T02:29:45;18.70;91.10
25342;DHT22;13298;48.792;9.154;2023-06-26T02:32:11;18.70;91.10
25342;DHT22;13298;48.792;9.154;2023-06-26T02:34:36;18.70;91.40
25342;DHT22;13298;48.792;9.154;2023-06-26T02:37:02;18.60;91.50
25342;DHT22;13298;48.792;9.154;2023-06-26T02:39:28;18.60;91.70
25342;DHT22;13298;48.792;9.154;2023-06-26T02:41:54;18.60;91.70
25342;DHT22;13298;48.792;9.154;2023-06-26T02:44:19;18.60;91.80
25342;DHT22;13298;48.792;9.154;2023-06-26T02:46:46;18.50;91.90
25342;DHT22;13298;48.792;9.154;2023-06-26T02:49:12;18.50;92.00
25342;DHT22;13298;48.792;9.154;2023-06-26T02:51:37;18.50;92.10
25342;DHT22;13298;48.792;9.154;2023-06-26T02:54:03;18.50;92.00
25342;DHT22;13298;48.792;9.154;2023-06-26T02:56:29;18.50;92.00
25342;DHT22;13298;48.792;9.154;2023-06-26T02:58:55;18.50;92.00
25342;DHT22;13298;48.792;9.154;2023-06-26T03:01:21;18.40;91.90
25342;DHT22;13298;48.792;9.154;2023-06-26T03:03:47;18.40;92.10
25342;DHT22;13298;48.792;9.154;2023-06-26T03:06:13;18.40;92.20
25342;DHT22;13298;48.792;9.154;2023-06-26T03:08:40;18.40;92.30
25342;DHT22;13298;48.792;9.154;2023-06-26T03:11:06;18.40;92.40
25342;DHT22;13298;48.792;9.154;2023-06-26T03:13:34;18.30;92.40
25342;DHT22;13298;48.792;9.154;2023-06-26T03:16:00;18.40;92.40
25342;DHT22;13298;48.792;9.154;2023-06-26T03:18:26;18.30;92.50
25342;DHT22;13298;48.792;9.154;2023-06-26T03:20:52;18.30;92.60
25342;DHT22;13298;48.792;9.154;2023-06-26T03:23:22;18.30;92.50
25342;DHT22;13298;48.792;9.154;2023-06-26T03:25:48;18.40;92.30
25342;DHT22;13298;48.792;9.154;2023-06-26T03:28:15;18.40;92.40
25342;DHT22;13298;48.792;9.154;2023-06-26T03:30:40;18.40;92.40
25342;DHT22;13298;48.792;9.154;2023-06-26T03:33:06;18.40;92.30
25342;DHT22;13298;48.792;9.154;2023-06-26T03:35:32;18.40;92.40
25342;DHT22;13298;48.792;9.154;2023-06-26T03:37:58;18.50;92.30
25342;DHT22;13298;48.792;9.154;2023-06-26T03:40:24;18.50;92.30
25342;DHT22;13298;48.792;9.154;2023-06-26T03:42:50;18.50;92.20
25342;DHT22;13298;48.792;9.154;2023-06-26T03:45:15;18.50;91.80
25342;DHT22;13298;48.792;9.154;2023-06-26T03:47:41;18.60;91.90
25342;DHT22;13298;48.792;9.154;2023-06-26T03:50:07;18.60;91.80
25342;DHT22;13298;48.792;9.154;2023-06-26T03:52:33;18.70;91.60
25342;DHT22;13298;48.792;9.154;2023-06-26T03:55:00;18.80;91.20
25342;DHT22;13298;48.792;9.154;2023-06-26T03:57:25;18.80;91.00
25342;DHT22;13298;48.792;9.154;2023-06-26T03:59:52;18.90;91.00
25342;DHT22;13298;48.792;9.154;2023-06-26T04:02:18;19.00;90.90
25342;DHT22;13298;48.792;9.154;2023-06-26T04:04:44;19.10;90.60
25342;DHT22;13298;48.792;9.154;2023-06-26T04:07:10;19.10;90.40
25342;DHT22;13298;48.792;9.154;2023-06-26T04:09:36;19.20;89.80
25342;DHT22;13298;48.792;9.154;2023-06-26T04:12:02;19.30;90.00
25342;DHT22;13298;48.792;9.154;2023-06-26T04:14:28;19.50;89.00
25342;DHT22;13298;48.792;9.154;2023-06-26T04:16:54;19.60;89.00
25342;DHT22;13298;48.792;9.154;2023-06-26T04:19:19;19.70;88.80
25342;DHT22;13298;48.792;9.154;2023-06-26T04:21:45;19.80;88.00
25342;DHT22;13298;48.792;9.154;2023-06-26T04:24:11;19.90;87.90
25342;DHT22;13298;48.792;9.154;2023-06-26T04:26:37;19.90;88.40
25342;DHT22;13298;48.792;9.154;2023-06-26T04:29:03;20.00;88.50
25342;DHT22;13298;48.792;9.154;2023-06-26T04:31:28;20.00;88.20
25342;DHT22;13298;48.792;9.154;2023-06-26T04:33:54;20.10;88.80
25342;DHT22;13298;48.792;9.154;2023-06-26T04:36:21;20.10;89.40
25342;DHT22;13298;48.792;9.154;2023-06-26T04:38:46;20.10;89.80
25342;DHT22;13298;48.792;9.154;2023-06-26T04:41:15;20.20;90.00
25342;DHT22;13298;48.792;9.154;2023-06-26T04:43:40;20.20;90.50
25342;DHT22;13298;48.792;9.154;2023-06-26T04:46:06;20.20;90.60
25342;DHT22;13298;48.792;9.154;2023-06-26T04:48:32;20.20;90.60
25342;DHT22;13298;48.792;9.154;2023-06-26T04:50:58;20.20;90.80
25342;DHT22;13298;48.792;9.154;2023-06-26T04:53:24;20.30;90.80
25342;DHT22;13298;48.792;9.154;2023-06-26T04:55:53;20.30;90.80
25342;DHT22;13298;48.792;9.154;2023-06-26T04:58:19;20.40;90.70
25342;DHT22;13298;48.792;9.154;2023-06-26T05:00:45;20.40;90.30
25342;DHT22;13298;48.792;9.154;2023-06-26T05:03:12;20.50;90.50
25342;DHT22;13298;48.792;9.154;2023-06-26T05:05:38;20.60;90.00
25342;DHT22;13298;48.792;9.154;2023-06-26T05:08:14;20.60;90.10
25342;DHT22;13298;48.792;9.154;2023-06-26T05:10:44;20.70;90.00
25342;DHT22;13298;48.792;9.154;2023-06-26T05:13:10;20.80;90.30
25342;DHT22;13298;48.792;9.154;2023-06-26T05:15:36;20.80;90.30
25342;DHT22;13298;48.792;9.154;2023-06-26T05:18:02;20.90;90.20
25342;DHT22;13298;48.792;9.154;2023-06-26T05:20:28;21.00;89.80
25342;DHT22;13298;48.792;9.154;2023-06-26T05:22:54;21.10;89.40
25342;DHT22;13298;48.792;9.154;2023-06-26T05:25:20;21.20;90.40
25342;DHT22;13298;48.792;9.154;2023-06-26T05:27:47;21.40;90.40
25342;DHT22;13298;48.792;9.154;2023-06-26T05:30:13;21.70;89.10
25342;DHT22;13298;48.792;9.154;2023-06-26T05:32:40;21.90;87.80
25342;DHT22;13298;48.792;9.154;2023-06-26T05:35:07;22.30;85.80
25342;DHT22;13298;48.792;9.154;2023-06-26T05:37:33;22.70;84.90
25342;DHT22;13298;48.792;9.154;2023-06-26T05:40:00;23.00;83.70
25342;DHT22;13298;48.792;9.154;2023-06-26T05:42:27;23.20;83.20
25342;DHT22;13298;48.792;9.154;2023-06-26T05:44:53;23.20;83.20
25342;DHT22;13298;48.792;9.154;2023-06-26T05:47:19;23.30;83.20
25342;DHT22;13298;48.792;9.154;2023-06-26T05:49:45;23.20;82.60
25342;DHT22;13298;48.792;9.154;2023-06-26T05:52:11;23.20;82.10
25342;DHT22;13298;48.792;9.154;2023-06-26T05:54:37;23.20;82.00
25342;DHT22;13298;48.792;9.154;2023-06-26T05:57:03;23.20;81.50
25342;DHT22;13298;48.792;9.154;2023-06-26T05:59:31;23.20;81.40
25342;DHT22;13298;48.792;9.154;2023-06-26T06:01:57;23.40;81.90
25342;DHT22;13298;48.792;9.154;2023-06-26T06:04:23;23.40;81.60
25342;DHT22;13298;48.792;9.154;2023-06-26T06:06:48;23.50;81.20
25342;DHT22;13298;48.792;9.154;2023-06-26T06:09:14;23.70;81.90
25342;DHT22;13298;48.792;9.154;2023-06-26T06:11:40;23.80;81.00
25342;DHT22;13298;48.792;9.154;2023-06-26T06:14:06;24.00;79.90
25342;DHT22;13298;48.792;9.154;2023-06-26T06:16:32;24.10;80.00
25342;DHT22;13298;48.792;9.154;2023-06-26T06:18:58;24.30;79.80
25342;DHT22;13298;48.792;9.154;2023-06-26T06:21:23;24.40;80.20
25342;DHT22;13298;48.792;9.154;2023-06-26T06:23:49;24.60;78.90
25342;DHT22;13298;48.792;9.154;2023-06-26T06:26:15;24.80;78.50
25342;DHT22;13298;48.792;9.154;2023-06-26T06:28:40;24.90;79.00
25342;DHT22;13298;48.792;9.154;2023-06-26T06:31:06;25.10;79.50
25342;DHT22;13298;48.792;9.154;2023-06-26T06:33:32;25.20;75.60
25342;DHT22;13298;48.792;9.154;2023-06-26T06:35:57;25.30;77.60
25342;DHT22;13298;48.792;9.154;2023-06-26T06:38:23;25.40;77.70
25342;DHT22;13298;48.792;9.154;2023-06-26T06:40:49;25.50;77.00
25342;DHT22;13298;48.792;9.154;2023-06-26T06:43:15;25.70;76.30
25342;DHT22;13298;48.792;9.154;2023-06-26T06:45:40;25.70;77.50
25342;DHT22;13298;48.792;9.154;2023-06-26T06:48:06;25.70;77.70
25342;DHT22;13298;48.792;9.154;2023-06-26T06:50:32;25.70;77.10
25342;DHT22;13298;48.792;9.154;2023-06-26T06:52:58;25.80;78.30
25342;DHT22;13298;48.792;9.154;2023-06-26T06:55:23;25.90;78.50
25342;DHT22;13298;48.792;9.154;2023-06-26T06:57:51;26.00;78.30
25342;DHT22;13298;48.792;9.154;2023-06-26T07:00:17;26.10;77.30
25342;DHT22;13298;48.792;9.154;2023-06-26T07:02:43;26.10;76.60
25342;DHT22;13298;48.792;9.154;2023-06-26T07:05:10;26.20;75.70
25342;DHT22;13298;48.792;9.154;2023-06-26T07:07:37;26.30;76.70
25342;DHT22;13298;48.792;9.154;2023-06-26T07:10:06;26.30;75.40
25342;DHT22;13298;48.792;9.154;2023-06-26T07:12:37;26.30;75.70
25342;DHT22;13298;48.792;9.154;2023-06-26T07:15:04;26.40;76.00
25342;DHT22;13298;48.792;9.154;2023-06-26T07:17:31;26.50;73.90
25342;DHT22;13298;48.792;9.154;2023-06-26T07:20:00;26.60;73.90
25342;DHT22;13298;48.792;9.154;2023-06-26T07:22:26;26.70;74.10
25342;DHT22;13298;48.792;9.154;2023-06-26T07:24:52;26.80;73.90
25342;DHT22;13298;48.792;9.154;2023-06-26T07:27:20;26.90;72.60
25342;DHT22;13298;48.792;9.154;2023-06-26T07:29:46;26.90;73.50
25342;DHT22;13298;48.792;9.154;2023-06-26T07:32:11;27.00;73.70
25342;DHT22;13298;48.792;9.154;2023-06-26T07:34:37;27.20;74.20
25342;DHT22;13298;48.792;9.154;2023-06-26T07:39:34;27.30;73.40
25342;DHT22;13298;48.792;9.154;2023-06-26T07:42:00;27.30;70.90
25342;DHT22;13298;48.792;9.154;2023-06-26T07:44:26;27.40;71.90
25342;DHT22;13298;48.792;9.154;2023-06-26T07:46:52;27.50;71.50
25342;DHT22;13298;48.792;9.154;2023-06-26T07:49:17;27.60;71.20
25342;DHT22;13298;48.792;9.154;2023-06-26T07:51:43;27.80;69.90
25342;DHT22;13298;48.792;9.154;2023-06-26T07:54:09;27.90;69.90
25342;DHT22;13298;48.792;9.154;2023-06-26T07:56:55;28.00;70.70
25342;DHT22;13298;48.792;9.154;2023-06-26T07:59:22;28.10;67.20
25342;DHT22;13298;48.792;9.154;2023-06-26T08:01:50;27.90;68.30
25342;DHT22;13298;48.792;9.154;2023-06-26T08:04:18;28.00;67.80
25342;DHT22;13298;48.792;9.154;2023-06-26T08:06:45;28.00;67.10
25342;DHT22;13298;48.792;9.154;2023-06-26T08:09:13;28.10;67.70
25342;DHT22;13298;48.792;9.154;2023-06-26T08:11:38;28.20;67.60
25342;DHT22;13298;48.792;9.154;2023-06-26T08:14:04;28.20;67.30
25342;DHT22;13298;48.792;9.154;2023-06-26T08:16:30;28.30;68.00
25342;DHT22;13298;48.792;9.154;2023-06-26T08:18:55;28.40;66.90
25342;DHT22;13298;48.792;9.154;2023-06-26T08:21:21;28.40;67.60
25342;DHT22;13298;48.792;9.154;2023-06-26T08:23:47;28.50;67.20
25342;DHT22;13298;48.792;9.154;2023-06-26T08:26:13;28.60;68.30
25342;DHT22;13298;48.792;9.154;2023-06-26T08:28:39;28.60;65.10
25342;DHT22;13298;48.792;9.154;2023-06-26T08:31:05;28.60;65.30
25342;DHT22;13298;48.792;9.154;2023-06-26T08:33:33;28.70;65.10
25342;DHT22;13298;48.792;9.154;2023-06-26T08:35:59;28.80;65.30
25342;DHT22;13298;48.792;9.154;2023-06-26T08:38:24;28.80;65.80
25342;DHT22;13298;48.792;9.154;2023-06-26T08:40:50;28.80;63.40
25342;DHT22;13298;48.792;9.154;2023-06-26T08:43:16;28.90;64.80
25342;DHT22;13298;48.792;9.154;2023-06-26T08:45:42;29.00;65.70
25342;DHT22;13298;48.792;9.154;2023-06-26T08:48:08;29.10;64.00
25342;DHT22;13298;48.792;9.154;2023-06-26T08:50:38;29.20;64.10
25342;DHT22;13298;48.792;9.154;2023-06-26T08:55:53;29.40;64.50
25342;DHT22;13298;48.792;9.154;2023-06-26T08:58:20;29.50;65.70
25342;DHT22;13298;48.792;9.154;2023-06-26T09:00:45;29.50;64.10
25342;DHT22;13298;48.792;9.154;2023-06-26T09:03:12;29.50;62.50
25342;DHT22;13298;48.792;9.154;2023-06-26T09:05:39;29.60;64.30
25342;DHT22;13298;48.792;9.154;2023-06-26T09:08:07;29.70;67.30
25342;DHT22;13298;48.792;9.154;2023-06-26T09:10:33;29.80;66.50
25342;DHT22;13298;48.792;9.154;2023-06-26T09:12:59;29.80;62.50
25342;DHT22;13298;48.792;9.154;2023-06-26T09:15:42;29.90;61.30
25342;DHT22;13298;48.792;9.154;2023-06-26T09:18:08;29.90;63.20
25342;DHT22;13298;48.792;9.154;2023-06-26T09:20:34;30.00;61.90
25342;DHT22;13298;48.792;9.154;2023-06-26T09:23:02;30.10;60.70
25342;DHT22;13298;48.792;9.154;2023-06-26T09:25:29;30.20;60.10
25342;DHT22;13298;48.792;9.154;2023-06-26T09:28:06;30.30;61.10
25342;DHT22;13298;48.792;9.154;2023-06-26T09:30:32;30.50;60.70
25342;DHT22;13298;48.792;9.154;2023-06-26T09:33:16;30.60;60.70
25342;DHT22;13298;48.792;9.154;2023-06-26T09:35:47;30.70;59.60
25342;DHT22;13298;48.792;9.154;2023-06-26T09:38:13;30.80;60.10
25342;DHT22;13298;48.792;9.154;2023-06-26T09:40:40;31.10;59.60
25342;DHT22;13298;48.792;9.154;2023-06-26T09:43:07;31.30;59.50
25342;DHT22;13298;48.792;9.154;2023-06-26T09:45:35;31.40;58.00
25342;DHT22;13298;48.792;9.154;2023-06-26T09:48:04;31.60;58.00
25342;DHT22;13298;48.792;9.154;2023-06-26T09:50:33;31.80;58.30
25342;DHT22;13298;48.792;9.154;2023-06-26T09:53:10;32.00;58.20
25342;DHT22;13298;48.792;9.154;2023-06-26T09:55:37;32.10;57.20
25342;DHT22;13298;48.792;9.154;2023-06-26T09:58:06;32.10;57.70
25342;DHT22;13298;48.792;9.154;2023-06-26T10:00:32;31.90;57.60
25342;DHT22;13298;48.792;9.154;2023-06-26T10:03:01;31.70;58.40
25342;DHT22;13298;48.792;9.154;2023-06-26T10:05:27;31.40;58.10
25342;DHT22;13298;48.792;9.154;2023-06-26T10:07:54;31.10;58.20
25342;DHT22;13298;48.792;9.154;2023-06-26T10:10:22;30.80;58.90
25342;DHT22;13298;48.792;9.154;2023-06-26T10:12:49;30.60;59.90
25342;DHT22;13298;48.792;9.154;2023-06-26T10:15:17;30.40;61.10
25342;DHT22;13298;48.792;9.154;2023-06-26T10:17:46;30.40;62.30
25342;DHT22;13298;48.792;9.154;2023-06-26T10:20:14;30.50;61.70
25342;DHT22;13298;48.792;9.154;2023-06-26T10:22:46;30.50;61.60
25342;DHT22;13298;48.792;9.154;2023-06-26T10:25:18;30.50;61.70
25342;DHT22;13298;48.792;9.154;2023-06-26T10:27:49;30.50;62.10
25342;DHT22;13298;48.792;9.154;2023-06-26T10:30:33;30.50;62.10
25342;DHT22;13298;48.792;9.154;2023-06-26T10:33:00;30.30;62.30
25342;DHT22;13298;48.792;9.154;2023-06-26T10:35:27;30.10;61.00
25342;DHT22;13298;48.792;9.154;2023-06-26T10:38:00;29.80;62.50
25342;DHT22;13298;48.792;9.154;2023-06-26T10:40:48;29.60;63.50
25342;DHT22;13298;48.792;9.154;2023-06-26T10:43:20;29.70;64.10
25342;DHT22;13298;48.792;9.154;2023-06-26T10:45:47;29.80;64.70
25342;DHT22;13298;48.792;9.154;2023-06-26T10:48:17;29.80;62.70
25342;DHT22;13298;48.792;9.154;2023-06-26T10:50:47;29.80;64.30
25342;DHT22;13298;48.792;9.154;2023-06-26T10:58:32;29.80;62.40
25342;DHT22;13298;48.792;9.154;2023-06-26T11:01:21;29.70;61.90
25342;DHT22;13298;48.792;9.154;2023-06-26T11:04:08;29.70;61.50
25342;DHT22;13298;48.792;9.154;2023-06-26T11:06:37;29.50;63.30
25342;DHT22;13298;48.792;9.154;2023-06-26T11:09:11;29.60;64.00
25342;DHT22;13298;48.792;9.154;2023-06-26T11:14:21;29.90;64.10
25342;DHT22;13298;48.792;9.154;2023-06-26T11:16:48;29.90;63.90
25342;DHT22;13298;48.792;9.154;2023-06-26T11:19:18;29.90;64.10
25342;DHT22;13298;48.792;9.154;2023-06-26T11:21:45;29.80;62.90
25342;DHT22;13298;48.792;9.154;2023-06-26T11:24:12;29.80;64.60
25342;DHT22;13298;48.792;9.154;2023-06-26T11:26:40;29.80;62.50
25342;DHT22;13298;48.792;9.154;2023-06-26T11:29:17;29.70;63.90
25342;DHT22;13298;48.792;9.154;2023-06-26T11:34:40;29.80;64.10
25342;DHT22;13298;48.792;9.154;2023-06-26T11:37:08;29.90;64.40
25342;DHT22;13298;48.792;9.154;2023-06-26T11:39:34;29.90;64.20
25342;DHT22;13298;48.792;9.154;2023-06-26T11:42:00;29.80;65.10
25342;DHT22;13298;48.792;9.154;2023-06-26T11:44:30;29.90;65.10
25342;DHT22;13298;48.792;9.154;2023-06-26T11:46:57;29.80;63.40
25342;DHT22;13298;48.792;9.154;2023-06-26T11:49:23;29.70;65.40
25342;DHT22;13298;48.792;9.154;2023-06-26T11:51:52;29.70;66.00
25342;DHT22;13298;48.792;9.154;2023-06-26T11:54:26;29.70;65.30
25342;DHT22;13298;48.792;9.154;2023-06-26T11:56:58;29.70;67.00
25342;DHT22;13298;48.792;9.154;2023-06-26T11:59:32;29.80;67.70
25342;DHT22;13298;48.792;9.154;2023-06-26T12:02:12;29.80;67.20
25342;DHT22;13298;48.792;9.154;2023-06-26T12:04:41;29.60;67.50
25342;DHT22;13298;48.792;9.154;2023-06-26T12:07:08;29.60;68.70
25342;DHT22;13298;48.792;9.154;2023-06-26T12:09:46;29.70;69.50
25342;DHT22;13298;48.792;9.154;2023-06-26T12:12:14;29.70;69.40
25342;DHT22;13298;48.792;9.154;2023-06-26T12:14:42;29.70;71.30
25342;DHT22;13298;48.792;9.154;2023-06-26T12:17:12;29.80;69.10
25342;DHT22;13298;48.792;9.154;2023-06-26T12:19:42;29.70;69.40
25342;DHT22;13298;48.792;9.154;2023-06-26T12:22:13;29.60;69.10
25342;DHT22;13298;48.792;9.154;2023-06-26T12:24:39;29.50;69.80
25342;DHT22;13298;48.792;9.154;2023-06-26T12:27:13;29.50;69.50
25342;DHT22;13298;48.792;9.154;2023-06-26T12:29:45;29.50;71.10
25342;DHT22;13298;48.792;9.154;2023-06-26T12:32:14;29.50;70.50
25342;DHT22;13298;48.792;9.154;2023-06-26T12:34:40;29.70;71.30
25342;DHT22;13298;48.792;9.154;2023-06-26T12:37:10;29.70;69.90
25342;DHT22;13298;48.792;9.154;2023-06-26T12:39:47;29.70;70.00
25342;DHT22;13298;48.792;9.154;2023-06-26T12:42:24;29.70;69.40
25342;DHT22;13298;48.792;9.154;2023-06-26T12:44:51;29.80;69.80
25342;DHT22;13298;48.792;9.154;2023-06-26T12:47:22;29.70;69.00
25342;DHT22;13298;48.792;9.154;2023-06-26T12:49:51;29.70;69.00
25342;DHT22;13298;48.792;9.154;2023-06-26T12:52:18;29.70;68.50
25342;DHT22;13298;48.792;9.154;2023-06-26T12:54:47;29.80;70.10
25342;DHT22;13298;48.792;9.154;2023-06-26T12:57:17;29.90;69.60
25342;DHT22;13298;48.792;9.154;2023-06-26T12:59:42;30.00;68.80
25342;DHT22;13298;48.792;9.154;2023-06-26T13:02:09;29.90;68.40
25342;DHT22;13298;48.792;9.154;2023-06-26T13:04:38;29.90;68.10
25342;DHT22;13298;48.792;9.154;2023-06-26T13:07:09;29.90;67.30
25342;DHT22;13298;48.792;9.154;2023-06-26T13:09:36;29.90;67.30
25342;DHT22;13298;48.792;9.154;2023-06-26T13:12:03;29.80;67.00
25342;DHT22;13298;48.792;9.154;2023-06-26T13:14:30;29.70;67.70
25342;DHT22;13298;48.792;9.154;2023-06-26T13:16:56;29.70;68.60
25342;DHT22;13298;48.792;9.154;2023-06-26T13:19:22;29.70;68.40
25342;DHT22;13298;48.792;9.154;2023-06-26T13:21:47;29.80;67.30
25342;DHT22;13298;48.792;9.154;2023-06-26T13:24:13;29.80;68.60
25342;DHT22;13298;48.792;9.154;2023-06-26T13:26:39;29.90;68.00
25342;DHT22;13298;48.792;9.154;2023-06-26T13:29:05;29.90;66.40
25342;DHT22;13298;48.792;9.154;2023-06-26T13:31:31;30.00;65.70
25342;DHT22;13298;48.792;9.154;2023-06-26T13:33:58;29.90;64.70
25342;DHT22;13298;48.792;9.154;2023-06-26T13:36:24;29.70;65.50
25342;DHT22;13298;48.792;9.154;2023-06-26T13:38:50;29.70;66.00
25342;DHT22;13298;48.792;9.154;2023-06-26T13:41:21;29.80;65.40
25342;DHT22;13298;48.792;9.154;2023-06-26T13:43:48;29.90;64.30
25342;DHT22;13298;48.792;9.154;2023-06-26T13:46:13;29.80;63.40
25342;DHT22;13298;48.792;9.154;2023-06-26T13:48:40;29.60;64.10
25342;DHT22;13298;48.792;9.154;2023-06-26T13:51:06;29.50;64.40
25342;DHT22;13298;48.792;9.154;2023-06-26T13:53:31;29.60;63.60
25342;DHT22;13298;48.792;9.154;2023-06-26T13:55:57;29.70;62.90
25342;DHT22;13298;48.792;9.154;2023-06-26T14:01:52;29.90;61.40
25342;DHT22;13298;48.792;9.154;2023-06-26T14:04:18;29.80;59.50
25342;DHT22;13298;48.792;9.154;2023-06-26T14:06:59;29.90;59.80
25342;DHT22;13298;48.792;9.154;2023-06-26T14:15:54;30.00;59.70
25342;DHT22;13298;48.792;9.154;2023-06-26T14:18:21;30.00;59.10
25342;DHT22;13298;48.792;9.154;2023-06-26T14:20:48;30.20;60.00
25342;DHT22;13298;48.792;9.154;2023-06-26T14:23:14;30.40;58.50
25342;DHT22;13298;48.792;9.154;2023-06-26T14:25:40;30.50;57.60
25342;DHT22;13298;48.792;9.154;2023-06-26T14:28:06;30.50;58.10
25342;DHT22;13298;48.792;9.154;2023-06-26T14:30:31;30.60;57.80
25342;DHT22;13298;48.792;9.154;2023-06-26T14:32:57;30.40;57.20
25342;DHT22;13298;48.792;9.154;2023-06-26T14:35:23;30.20;58.80
25342;DHT22;13298;48.792;9.154;2023-06-26T14:37:48;30.20;59.20
25342;DHT22;13298;48.792;9.154;2023-06-26T14:40:15;30.20;58.40
25342;DHT22;13298;48.792;9.154;2023-06-26T14:42:40;30.10;57.40
25342;DHT22;13298;48.792;9.154;2023-06-26T14:45:08;30.10;58.50
25342;DHT22;13298;48.792;9.154;2023-06-26T14:47:34;30.20;58.00
25342;DHT22;13298;48.792;9.154;2023-06-26T14:50:00;30.20;58.50
25342;DHT22;13298;48.792;9.154;2023-06-26T14:52:26;30.30;58.10
25342;DHT22;13298;48.792;9.154;2023-06-26T14:54:51;30.30;57.60
25342;DHT22;13298;48.792;9.154;2023-06-26T14:57:17;30.40;58.80
25342;DHT22;13298;48.792;9.154;2023-06-26T14:59:43;30.50;58.30
25342;DHT22;13298;48.792;9.154;2023-06-26T15:02:09;30.60;58.60
25342;DHT22;13298;48.792;9.154;2023-06-26T15:04:34;30.40;58.30
25342;DHT22;13298;48.792;9.154;2023-06-26T15:07:00;30.20;58.50
25342;DHT22;13298;48.792;9.154;2023-06-26T15:09:26;30.20;58.90
25342;DHT22;13298;48.792;9.154;2023-06-26T15:11:51;30.10;59.00
25342;DHT22;13298;48.792;9.154;2023-06-26T15:14:17;30.10;59.10
25342;DHT22;13298;48.792;9.154;2023-06-26T15:16:43;30.10;59.00
25342;DHT22;13298;48.792;9.154;2023-06-26T15:19:09;30.20;59.90
25342;DHT22;13298;48.792;9.154;2023-06-26T15:21:34;30.30;58.60
25342;DHT22;13298;48.792;9.154;2023-06-26T15:24:00;30.20;58.90
25342;DHT22;13298;48.792;9.154;2023-06-26T15:26:26;30.10;59.90
25342;DHT22;13298;48.792;9.154;2023-06-26T15:28:52;29.90;58.90
25342;DHT22;13298;48.792;9.154;2023-06-26T15:31:19;29.80;59.70
25342;DHT22;13298;48.792;9.154;2023-06-26T15:33:45;29.80;59.50
25342;DHT22;13298;48.792;9.154;2023-06-26T15:36:11;29.70;59.40
25342;DHT22;13298;48.792;9.154;2023-06-26T15:38:36;29.60;58.80
25342;DHT22;13298;48.792;9.154;2023-06-26T15:41:02;29.40;60.10
25342;DHT22;13298;48.792;9.154;2023-06-26T15:43:28;29.40;59.80
25342;DHT22;13298;48.792;9.154;2023-06-26T15:45:54;29.40;58.90
25342;DHT22;13298;48.792;9.154;2023-06-26T15:48:19;29.30;59.40
25342;DHT22;13298;48.792;9.154;2023-06-26T15:50:45;29.40;58.70
25342;DHT22;13298;48.792;9.154;2023-06-26T15:53:16;29.40;60.30
25342;DHT22;13298;48.792;9.154;2023-06-26T15:55:42;29.20;59.80
25342;DHT22;13298;48.792;9.154;2023-06-26T15:58:08;29.10;60.20
25342;DHT22;13298;48.792;9.154;2023-06-26T16:00:34;28.80;59.60
25342;DHT22;13298;48.792;9.154;2023-06-26T16:03:00;28.50;60.80